sensor_id;sensor_type;location;lat;lon;timestamp;pressure;altitude;pressure_sealevel;temperature;humidity
18527;BME280;9393;42.158;24.748;2022-08-21T00:02:14;98889.75;;;25.76;74.79
18527;BME280;9393;42.158;24.748;2022-08-21T00:05:18;98903.94;;;25.23;75.34
18527;BME280;9393;42.158;24.748;2022-08-21T00:08:21;98912.44;;;25.73;72.55
18527;BME280;9393;42.158;24.748;2022-08-21T00:11:25;98921.09;;;25.85;72.30
18527;BME280;9393;42.158;24.748;2022-08-21T00:14:30;98919.41;;;25.74;73.03
18527;BME280;9393;42.158;24.748;2022-08-21T00:17:34;98901.47;;;25.70;73.65
18527;BME280;9393;42.158;24.748;2022-08-21T00:20:38;98900.19;;;25.77;73.57
18527;BME280;9393;42.158;24.748;2022-08-21T00:23:42;98893.00;;;25.78;72.88
18527;BME280;9393;42.158;24.748;2022-08-21T00:26:46;98897.81;;;25.81;72.55
18527;BME280;9393;42.158;24.748;2022-08-21T00:29:51;98896.44;;;25.46;73.41
18527;BME280;9393;42.158;24.748;2022-08-21T00:32:56;98881.66;;;25.39;76.08
18527;BME280;9393;42.158;24.748;2022-08-21T00:36:00;98883.91;;;25.20;75.65
18527;BME280;9393;42.158;24.748;2022-08-21T00:39:04;98894.31;;;25.22;74.08
18527;BME280;9393;42.158;24.748;2022-08-21T00:42:07;98895.19;;;25.54;73.07
18527;BME280;9393;42.158;24.748;2022-08-21T00:45:12;98870.75;;;25.40;74.56
18527;BME280;9393;42.158;24.748;2022-08-21T00:48:15;98864.34;;;25.68;72.99
18527;BME280;9393;42.158;24.748;2022-08-21T00:51:23;98865.19;;;25.74;73.30
18527;BME280;9393;42.158;24.748;2022-08-21T00:54:29;98870.31;;;25.22;76.10
18527;BME280;9393;42.158;24.748;2022-08-21T00:57:38;98877.47;;;25.75;72.95
18527;BME280;9393;42.158;24.748;2022-08-21T01:00:45;98879.44;;;25.89;71.97
18527;BME280;9393;42.158;24.748;2022-08-21T01:03:49;98875.34;;;25.77;72.07
18527;BME280;9393;42.158;24.748;2022-08-21T01:06:53;98873.88;;;25.59;72.48
18527;BME280;9393;42.158;24.748;2022-08-21T01:09:57;98875.47;;;25.60;72.83
18527;BME280;9393;42.158;24.748;2022-08-21T01:13:01;98868.66;;;25.74;70.63
18527;BME280;9393;42.158;24.748;2022-08-21T01:16:09;98849.50;;;25.87;70.14
18527;BME280;9393;42.158;24.748;2022-08-21T01:19:13;98837.28;;;25.96;69.99
18527;BME280;9393;42.158;24.748;2022-08-21T01:22:18;98841.66;;;26.12;70.00
18527;BME280;9393;42.158;24.748;2022-08-21T01:25:22;98837.16;;;25.76;70.51
18527;BME280;9393;42.158;24.748;2022-08-21T01:28:26;98826.28;;;25.51;71.61
18527;BME280;9393;42.158;24.748;2022-08-21T01:31:32;98835.91;;;25.89;69.82
18527;BME280;9393;42.158;24.748;2022-08-21T01:34:38;98823.25;;;25.74;68.39
18527;BME280;9393;42.158;24.748;2022-08-21T01:37:44;98826.31;;;24.97;69.70
18527;BME280;9393;42.158;24.748;2022-08-21T01:40:47;98824.22;;;24.78;71.65
18527;BME280;9393;42.158;24.748;2022-08-21T01:43:51;98824.53;;;24.81;72.43
18527;BME280;9393;42.158;24.748;2022-08-21T01:46:55;98830.88;;;25.29;71.76
18527;BME280;9393;42.158;24.748;2022-08-21T01:50:00;98832.59;;;24.86;72.84
18527;BME280;9393;42.158;24.748;2022-08-21T01:53:05;98842.22;;;24.87;73.08
18527;BME280;9393;42.158;24.748;2022-08-21T01:56:11;98853.38;;;24.62;75.26
18527;BME280;9393;42.158;24.748;2022-08-21T01:59:15;98872.34;;;24.66;76.29
18527;BME280;9393;42.158;24.748;2022-08-21T02:02:18;98905.22;;;24.72;76.25
18527;BME280;9393;42.158;24.748;2022-08-21T02:05:22;98914.38;;;24.81;76.87
18527;BME280;9393;42.158;24.748;2022-08-21T02:08:27;98929.94;;;24.67;78.10
18527;BME280;9393;42.158;24.748;2022-08-21T02:11:31;98920.88;;;24.85;77.41
18527;BME280;9393;42.158;24.748;2022-08-21T02:14:34;98909.72;;;25.14;76.83
18527;BME280;9393;42.158;24.748;2022-08-21T02:17:40;98907.81;;;25.37;75.74
18527;BME280;9393;42.158;24.748;2022-08-21T02:20:46;98909.66;;;25.58;74.38
18527;BME280;9393;42.158;24.748;2022-08-21T02:23:58;98906.50;;;25.66;73.42
18527;BME280;9393;42.158;24.748;2022-08-21T02:27:01;98916.16;;;25.45;74.42
18527;BME280;9393;42.158;24.748;2022-08-21T02:30:05;98921.31;;;25.52;74.46
18527;BME280;9393;42.158;24.748;2022-08-21T02:33:09;98925.28;;;25.23;76.00
18527;BME280;9393;42.158;24.748;2022-08-21T02:36:13;98922.13;;;25.26;76.26
18527;BME280;9393;42.158;24.748;2022-08-21T02:39:18;98923.34;;;25.40;75.43
18527;BME280;9393;42.158;24.748;2022-08-21T02:42:28;98935.75;;;25.29;75.76
18527;BME280;9393;42.158;24.748;2022-08-21T02:45:33;98938.25;;;25.14;76.67
18527;BME280;9393;42.158;24.748;2022-08-21T02:48:37;98943.88;;;25.39;75.51
18527;BME280;9393;42.158;24.748;2022-08-21T02:51:40;98941.69;;;25.58;74.46
18527;BME280;9393;42.158;24.748;2022-08-21T02:54:45;98941.31;;;25.76;73.09
18527;BME280;9393;42.158;24.748;2022-08-21T02:57:49;98940.69;;;25.69;74.20
18527;BME280;9393;42.158;24.748;2022-08-21T03:00:52;98923.66;;;25.22;77.39
18527;BME280;9393;42.158;24.748;2022-08-21T03:03:56;98918.38;;;24.78;80.15
18527;BME280;9393;42.158;24.748;2022-08-21T03:06:59;98926.31;;;25.17;77.96
18527;BME280;9393;42.158;24.748;2022-08-21T03:10:05;98919.34;;;25.42;76.51
18527;BME280;9393;42.158;24.748;2022-08-21T03:13:10;98927.31;;;25.64;75.78
18527;BME280;9393;42.158;24.748;2022-08-21T03:16:13;98934.63;;;25.47;77.46
18527;BME280;9393;42.158;24.748;2022-08-21T03:19:17;98941.03;;;25.24;77.21
18527;BME280;9393;42.158;24.748;2022-08-21T03:22:20;98936.97;;;25.43;77.60
18527;BME280;9393;42.158;24.748;2022-08-21T03:25:26;98933.50;;;25.43;77.08
18527;BME280;9393;42.158;24.748;2022-08-21T03:28:41;98927.31;;;25.64;75.12
18527;BME280;9393;42.158;24.748;2022-08-21T03:31:45;98925.72;;;25.41;77.29
18527;BME280;9393;42.158;24.748;2022-08-21T03:34:49;98939.50;;;25.55;76.24
18527;BME280;9393;42.158;24.748;2022-08-21T03:37:53;98935.97;;;25.23;76.36
18527;BME280;9393;42.158;24.748;2022-08-21T03:40:58;98930.28;;;25.41;75.46
18527;BME280;9393;42.158;24.748;2022-08-21T03:44:02;98941.94;;;25.35;76.28
18527;BME280;9393;42.158;24.748;2022-08-21T03:47:06;98938.88;;;25.21;76.76
18527;BME280;9393;42.158;24.748;2022-08-21T03:50:09;98947.78;;;25.32;76.07
18527;BME280;9393;42.158;24.748;2022-08-21T03:53:13;98944.69;;;25.40;74.83
18527;BME280;9393;42.158;24.748;2022-08-21T03:56:20;98950.63;;;25.47;75.05
18527;BME280;9393;42.158;24.748;2022-08-21T03:59:23;98949.75;;;25.14;78.38
18527;BME280;9393;42.158;24.748;2022-08-21T04:02:27;98944.00;;;25.28;75.42
18527;BME280;9393;42.158;24.748;2022-08-21T04:05:31;98949.81;;;25.20;76.15
18527;BME280;9393;42.158;24.748;2022-08-21T04:08:34;98951.03;;;25.34;74.77
18527;BME280;9393;42.158;24.748;2022-08-21T04:11:39;98958.88;;;25.45;74.80
18527;BME280;9393;42.158;24.748;2022-08-21T04:14:43;98952.09;;;25.59;73.36
18527;BME280;9393;42.158;24.748;2022-08-21T04:17:46;98957.53;;;25.70;74.16
18527;BME280;9393;42.158;24.748;2022-08-21T04:20:51;98958.97;;;25.50;74.89
18527;BME280;9393;42.158;24.748;2022-08-21T04:23:56;98962.13;;;25.74;74.19
18527;BME280;9393;42.158;24.748;2022-08-21T04:27:03;98958.88;;;25.72;75.09
18527;BME280;9393;42.158;24.748;2022-08-21T04:30:08;98955.28;;;25.56;75.95
18527;BME280;9393;42.158;24.748;2022-08-21T04:33:11;98958.88;;;25.72;75.23
18527;BME280;9393;42.158;24.748;2022-08-21T04:36:14;98958.88;;;25.72;75.44
18527;BME280;9393;42.158;24.748;2022-08-21T04:39:23;98949.81;;;25.73;75.40
18527;BME280;9393;42.158;24.748;2022-08-21T04:42:32;98946.41;;;25.78;75.08
18527;BME280;9393;42.158;24.748;2022-08-21T04:45:37;98936.16;;;25.70;76.16
18527;BME280;9393;42.158;24.748;2022-08-21T04:48:41;98942.97;;;25.55;77.68
18527;BME280;9393;42.158;24.748;2022-08-21T04:51:44;98934.16;;;25.82;74.48
18527;BME280;9393;42.158;24.748;2022-08-21T04:54:49;98929.34;;;25.84;74.69
18527;BME280;9393;42.158;24.748;2022-08-21T04:57:57;98923.50;;;25.87;75.43
18527;BME280;9393;42.158;24.748;2022-08-21T05:01:02;98917.56;;;25.80;75.60
18527;BME280;9393;42.158;24.748;2022-08-21T05:04:09;98925.44;;;25.38;77.28
18527;BME280;9393;42.158;24.748;2022-08-21T05:07:16;98921.75;;;25.17;78.06
18527;BME280;9393;42.158;24.748;2022-08-21T05:10:42;98919.91;;;25.44;76.38
18527;BME280;9393;42.158;24.748;2022-08-21T05:13:47;98927.56;;;25.36;77.00
18527;BME280;9393;42.158;24.748;2022-08-21T05:16:58;98916.56;;;25.05;79.47
18527;BME280;9393;42.158;24.748;2022-08-21T05:20:02;98919.38;;;25.21;79.70
18527;BME280;9393;42.158;24.748;2022-08-21T05:23:08;98907.25;;;25.35;77.06
18527;BME280;9393;42.158;24.748;2022-08-21T05:26:12;98902.28;;;25.43;78.25
18527;BME280;9393;42.158;24.748;2022-08-21T05:29:20;98907.03;;;25.41;76.39
18527;BME280;9393;42.158;24.748;2022-08-21T05:32:24;98908.94;;;25.41;75.33
18527;BME280;9393;42.158;24.748;2022-08-21T05:35:30;98906.31;;;25.19;77.98
18527;BME280;9393;42.158;24.748;2022-08-21T05:38:34;98904.97;;;25.48;75.90
18527;BME280;9393;42.158;24.748;2022-08-21T05:41:37;98913.69;;;25.60;73.64
18527;BME280;9393;42.158;24.748;2022-08-21T05:44:42;98917.19;;;25.66;74.30
18527;BME280;9393;42.158;24.748;2022-08-21T05:47:46;98924.41;;;25.17;76.02
18527;BME280;9393;42.158;24.748;2022-08-21T05:50:50;98922.84;;;25.48;76.22
18527;BME280;9393;42.158;24.748;2022-08-21T05:53:54;98918.03;;;25.45;76.06
18527;BME280;9393;42.158;24.748;2022-08-21T05:56:57;98923.44;;;25.50;75.63
18527;BME280;9393;42.158;24.748;2022-08-21T06:00:03;98922.13;;;25.26;76.72
18527;BME280;9393;42.158;24.748;2022-08-21T06:03:15;98924.25;;;25.24;77.06
18527;BME280;9393;42.158;24.748;2022-08-21T06:06:19;98929.84;;;25.27;76.76
18527;BME280;9393;42.158;24.748;2022-08-21T06:09:23;98941.00;;;25.19;77.21
18527;BME280;9393;42.158;24.748;2022-08-21T06:12:26;98937.13;;;25.32;77.68
18527;BME280;9393;42.158;24.748;2022-08-21T06:15:31;98940.91;;;25.36;77.26
18527;BME280;9393;42.158;24.748;2022-08-21T06:18:35;98939.13;;;25.46;76.97
18527;BME280;9393;42.158;24.748;2022-08-21T06:21:38;98945.09;;;25.05;78.74
18527;BME280;9393;42.158;24.748;2022-08-21T06:24:42;98945.63;;;25.29;77.62
18527;BME280;9393;42.158;24.748;2022-08-21T06:27:45;98943.47;;;24.82;80.16
18527;BME280;9393;42.158;24.748;2022-08-21T06:30:50;98943.16;;;24.57;80.87
18527;BME280;9393;42.158;24.748;2022-08-21T06:33:54;98938.88;;;25.21;78.52
18527;BME280;9393;42.158;24.748;2022-08-21T06:36:58;98936.50;;;25.25;76.62
18527;BME280;9393;42.158;24.748;2022-08-21T06:40:01;98932.44;;;25.44;75.57
18527;BME280;9393;42.158;24.748;2022-08-21T06:43:07;98932.69;;;25.16;77.39
18527;BME280;9393;42.158;24.748;2022-08-21T06:46:12;98928.38;;;25.63;75.82
18527;BME280;9393;42.158;24.748;2022-08-21T06:49:15;98928.88;;;25.92;73.63
18527;BME280;9393;42.158;24.748;2022-08-21T06:52:22;98924.09;;;25.94;72.98
18527;BME280;9393;42.158;24.748;2022-08-21T06:55:25;98917.50;;;26.06;72.05
18527;BME280;9393;42.158;24.748;2022-08-21T06:58:30;98908.75;;;26.16;71.74
18527;BME280;9393;42.158;24.748;2022-08-21T07:01:34;98916.28;;;25.87;74.33
18527;BME280;9393;42.158;24.748;2022-08-21T07:04:38;98911.47;;;25.89;73.80
18527;BME280;9393;42.158;24.748;2022-08-21T07:07:41;98911.53;;;26.26;72.60
18527;BME280;9393;42.158;24.748;2022-08-21T07:10:45;98907.75;;;26.22;73.08
18527;BME280;9393;42.158;24.748;2022-08-21T07:13:49;98906.28;;;26.46;72.15
18527;BME280;9393;42.158;24.748;2022-08-21T07:16:55;98905.50;;;26.51;71.74
18527;BME280;9393;42.158;24.748;2022-08-21T07:19:58;98909.28;;;26.60;72.16
18527;BME280;9393;42.158;24.748;2022-08-21T07:23:04;98909.50;;;26.48;71.94
18527;BME280;9393;42.158;24.748;2022-08-21T07:26:09;98909.31;;;26.65;72.70
18527;BME280;9393;42.158;24.748;2022-08-21T07:29:13;98910.94;;;26.76;71.37
18527;BME280;9393;42.158;24.748;2022-08-21T07:32:18;98906.94;;;26.74;70.42
18527;BME280;9393;42.158;24.748;2022-08-21T07:35:22;98906.69;;;26.80;69.65
18527;BME280;9393;42.158;24.748;2022-08-21T07:38:26;98896.63;;;26.97;68.85
18527;BME280;9393;42.158;24.748;2022-08-21T07:41:30;98892.91;;;27.19;68.32
18527;BME280;9393;42.158;24.748;2022-08-21T07:44:33;98889.91;;;26.85;69.69
18527;BME280;9393;42.158;24.748;2022-08-21T07:47:44;98883.31;;;27.43;67.18
18527;BME280;9393;42.158;24.748;2022-08-21T07:50:48;98895.00;;;26.91;68.85
18527;BME280;9393;42.158;24.748;2022-08-21T07:53:54;98893.72;;;27.19;67.72
18527;BME280;9393;42.158;24.748;2022-08-21T07:56:58;98898.81;;;27.16;68.18
18527;BME280;9393;42.158;24.748;2022-08-21T08:00:01;98897.91;;;26.85;69.79
18527;BME280;9393;42.158;24.748;2022-08-21T08:03:14;98907.00;;;26.84;68.94
18527;BME280;9393;42.158;24.748;2022-08-21T08:06:30;98904.81;;;26.81;68.56
18527;BME280;9393;42.158;24.748;2022-08-21T08:09:33;98906.41;;;26.72;69.33
18527;BME280;9393;42.158;24.748;2022-08-21T08:12:39;98890.03;;;26.63;69.30
18527;BME280;9393;42.158;24.748;2022-08-21T08:15:43;98897.56;;;26.71;69.22
18527;BME280;9393;42.158;24.748;2022-08-21T08:18:48;98890.59;;;26.65;69.11
18527;BME280;9393;42.158;24.748;2022-08-21T08:21:53;98886.34;;;26.74;69.44
18527;BME280;9393;42.158;24.748;2022-08-21T08:24:56;98884.19;;;26.76;69.56
18527;BME280;9393;42.158;24.748;2022-08-21T08:28:01;98883.88;;;26.57;69.63
18527;BME280;9393;42.158;24.748;2022-08-21T08:31:17;98889.00;;;26.17;70.91
18527;BME280;9393;42.158;24.748;2022-08-21T08:34:22;98889.47;;;26.09;70.71
18527;BME280;9393;42.158;24.748;2022-08-21T08:37:26;98877.72;;;26.62;68.79
18527;BME280;9393;42.158;24.748;2022-08-21T08:40:39;98873.47;;;26.66;69.26
18527;BME280;9393;42.158;24.748;2022-08-21T08:43:49;98873.56;;;26.29;70.34
18527;BME280;9393;42.158;24.748;2022-08-21T08:46:53;98869.03;;;26.30;69.87
18527;BME280;9393;42.158;24.748;2022-08-21T08:50:03;98865.84;;;26.38;70.73
18527;BME280;9393;42.158;24.748;2022-08-21T08:53:12;98865.41;;;26.51;69.63
18527;BME280;9393;42.158;24.748;2022-08-21T08:56:21;98864.06;;;26.58;69.59
18527;BME280;9393;42.158;24.748;2022-08-21T08:59:28;98860.25;;;26.39;70.70
18527;BME280;9393;42.158;24.748;2022-08-21T09:02:36;98855.19;;;26.43;70.97
18527;BME280;9393;42.158;24.748;2022-08-21T09:05:45;98861.19;;;26.65;69.11
18527;BME280;9393;42.158;24.748;2022-08-21T09:08:54;98856.97;;;26.89;68.45
18527;BME280;9393;42.158;24.748;2022-08-21T09:12:09;98855.59;;;26.72;68.12
18527;BME280;9393;42.158;24.748;2022-08-21T09:15:22;98849.34;;;26.51;70.69
18527;BME280;9393;42.158;24.748;2022-08-21T09:18:34;98850.50;;;26.70;69.89
18527;BME280;9393;42.158;24.748;2022-08-21T09:21:51;98845.63;;;26.62;69.72
18527;BME280;9393;42.158;24.748;2022-08-21T09:25:02;98839.69;;;27.37;67.46
18527;BME280;9393;42.158;24.748;2022-08-21T09:28:11;98842.06;;;27.19;67.66
18527;BME280;9393;42.158;24.748;2022-08-21T09:31:22;98836.47;;;27.20;67.95
18527;BME280;9393;42.158;24.748;2022-08-21T09:34:29;98832.69;;;27.41;67.51
18527;BME280;9393;42.158;24.748;2022-08-21T09:37:44;98829.25;;;27.41;66.73
18527;BME280;9393;42.158;24.748;2022-08-21T09:40:56;98830.03;;;27.16;67.35
18527;BME280;9393;42.158;24.748;2022-08-21T09:44:01;98822.19;;;26.89;68.39
18527;BME280;9393;42.158;24.748;2022-08-21T09:47:04;98818.00;;;27.44;66.40
18527;BME280;9393;42.158;24.748;2022-08-21T09:50:11;98816.41;;;27.58;66.21
18527;BME280;9393;42.158;24.748;2022-08-21T09:53:18;98820.69;;;27.64;65.19
18527;BME280;9393;42.158;24.748;2022-08-21T09:56:28;98818.50;;;27.76;64.33
18527;BME280;9393;42.158;24.748;2022-08-21T09:59:49;98822.00;;;27.36;66.11
18527;BME280;9393;42.158;24.748;2022-08-21T10:02:53;98833.53;;;27.47;66.59
18527;BME280;9393;42.158;24.748;2022-08-21T10:05:58;98833.25;;;27.23;66.04
18527;BME280;9393;42.158;24.748;2022-08-21T10:09:08;98840.72;;;27.11;66.81
18527;BME280;9393;42.158;24.748;2022-08-21T10:12:22;98838.19;;;26.74;68.44
18527;BME280;9393;42.158;24.748;2022-08-21T10:15:35;98829.69;;;26.87;68.23
18527;BME280;9393;42.158;24.748;2022-08-21T10:18:48;98834.81;;;27.04;68.89
18527;BME280;9393;42.158;24.748;2022-08-21T10:22:02;98834.28;;;27.12;67.88
18527;BME280;9393;42.158;24.748;2022-08-21T10:25:14;98830.00;;;27.01;67.80
18527;BME280;9393;42.158;24.748;2022-08-21T10:28:26;98833.50;;;27.32;66.35
18527;BME280;9393;42.158;24.748;2022-08-21T10:31:43;98826.81;;;27.19;67.38
18527;BME280;9393;42.158;24.748;2022-08-21T10:34:54;98835.13;;;27.23;67.59
18527;BME280;9393;42.158;24.748;2022-08-21T10:38:45;98835.66;;;27.30;67.28
18527;BME280;9393;42.158;24.748;2022-08-21T10:42:23;98828.38;;;27.10;68.53
18527;BME280;9393;42.158;24.748;2022-08-21T10:45:47;98841.84;;;26.48;70.96
18527;BME280;9393;42.158;24.748;2022-08-21T10:48:57;98843.00;;;26.72;70.12
18527;BME280;9393;42.158;24.748;2022-08-21T10:52:21;98838.63;;;26.46;72.31
18527;BME280;9393;42.158;24.748;2022-08-21T10:55:33;98844.06;;;26.66;71.80
18527;BME280;9393;42.158;24.748;2022-08-21T10:58:45;98842.72;;;26.69;71.90
18527;BME280;9393;42.158;24.748;2022-08-21T11:01:53;98842.84;;;26.32;71.52
18527;BME280;9393;42.158;24.748;2022-08-21T11:05:02;98845.25;;;27.00;70.47
18527;BME280;9393;42.158;24.748;2022-08-21T11:08:11;98845.41;;;26.74;71.15
18527;BME280;9393;42.158;24.748;2022-08-21T11:11:26;98842.06;;;27.08;69.28
18527;BME280;9393;42.158;24.748;2022-08-21T11:14:47;98839.97;;;26.48;72.27
18527;BME280;9393;42.158;24.748;2022-08-21T11:17:56;98837.75;;;26.97;70.65
18527;BME280;9393;42.158;24.748;2022-08-21T11:21:12;98833.78;;;27.30;67.88
18527;BME280;9393;42.158;24.748;2022-08-21T11:24:28;98829.75;;;27.33;68.43
18527;BME280;9393;42.158;24.748;2022-08-21T11:27:37;98828.41;;;27.15;68.40
18527;BME280;9393;42.158;24.748;2022-08-21T11:30:50;98822.75;;;26.91;69.35
18527;BME280;9393;42.158;24.748;2022-08-21T11:34:15;98823.03;;;26.28;70.87
18527;BME280;9393;42.158;24.748;2022-08-21T11:37:40;98828.00;;;26.61;70.69
18527;BME280;9393;42.158;24.748;2022-08-21T11:40:58;98826.25;;;27.07;68.13
18527;BME280;9393;42.158;24.748;2022-08-21T11:44:14;98816.06;;;27.04;67.88
18527;BME280;9393;42.158;24.748;2022-08-21T11:47:31;98819.00;;;26.97;68.44
18527;BME280;9393;42.158;24.748;2022-08-21T11:50:40;98815.81;;;27.05;67.99
18527;BME280;9393;42.158;24.748;2022-08-21T11:53:50;98811.00;;;27.38;66.80
18527;BME280;9393;42.158;24.748;2022-08-21T11:56:59;98811.28;;;27.36;66.67
18527;BME280;9393;42.158;24.748;2022-08-21T12:00:07;98809.97;;;27.59;66.35
18527;BME280;9393;42.158;24.748;2022-08-21T12:03:23;98798.59;;;26.66;69.05
18527;BME280;9393;42.158;24.748;2022-08-21T12:06:31;98811.78;;;26.88;68.95
18527;BME280;9393;42.158;24.748;2022-08-21T12:09:35;98800.03;;;26.99;68.36
18527;BME280;9393;42.158;24.748;2022-08-21T12:12:41;98796.81;;;27.07;67.51
18527;BME280;9393;42.158;24.748;2022-08-21T12:15:44;98789.47;;;26.62;69.98
18527;BME280;9393;42.158;24.748;2022-08-21T12:18:50;98786.91;;;26.82;69.64
18527;BME280;9393;42.158;24.748;2022-08-21T12:22:09;98785.25;;;26.81;69.07
18527;BME280;9393;42.158;24.748;2022-08-21T12:25:18;98780.47;;;26.83;69.03
18527;BME280;9393;42.158;24.748;2022-08-21T12:28:23;98781.56;;;27.02;68.21
18527;BME280;9393;42.158;24.748;2022-08-21T12:31:28;98780.44;;;26.78;69.51
18527;BME280;9393;42.158;24.748;2022-08-21T12:34:36;98774.31;;;26.83;68.38
18527;BME280;9393;42.158;24.748;2022-08-21T12:37:43;98775.13;;;26.93;68.40
18527;BME280;9393;42.158;24.748;2022-08-21T12:40:52;98767.88;;;26.79;67.03
18527;BME280;9393;42.158;24.748;2022-08-21T12:43:59;98773.47;;;26.77;68.19
18527;BME280;9393;42.158;24.748;2022-08-21T12:47:06;98769.69;;;26.63;68.86
18527;BME280;9393;42.158;24.748;2022-08-21T12:50:12;98764.56;;;25.84;73.09
18527;BME280;9393;42.158;24.748;2022-08-21T12:53:25;98760.88;;;26.62;70.11
18527;BME280;9393;42.158;24.748;2022-08-21T12:56:32;98752.66;;;26.84;69.46
18527;BME280;9393;42.158;24.748;2022-08-21T12:59:38;98748.66;;;27.57;66.50
18527;BME280;9393;42.158;24.748;2022-08-21T13:02:45;98751.31;;;27.37;67.35
18527;BME280;9393;42.158;24.748;2022-08-21T13:05:51;98739.47;;;27.84;66.10
18527;BME280;9393;42.158;24.748;2022-08-21T13:08:58;98747.78;;;27.72;66.77
18527;BME280;9393;42.158;24.748;2022-08-21T13:12:08;98747.09;;;28.26;65.40
18527;BME280;9393;42.158;24.748;2022-08-21T13:15:12;98753.16;;;27.72;67.74
18527;BME280;9393;42.158;24.748;2022-08-21T13:18:21;98753.19;;;28.41;64.92
18527;BME280;9393;42.158;24.748;2022-08-21T13:21:30;98750.69;;;27.86;65.38
18527;BME280;9393;42.158;24.748;2022-08-21T13:24:35;98746.16;;;27.81;65.52
18527;BME280;9393;42.158;24.748;2022-08-21T13:27:55;98750.69;;;27.91;65.92
18527;BME280;9393;42.158;24.748;2022-08-21T13:30:59;98753.31;;;28.11;64.79
18527;BME280;9393;42.158;24.748;2022-08-21T13:34:03;98744.81;;;28.53;64.12
18527;BME280;9393;42.158;24.748;2022-08-21T13:37:11;98738.63;;;28.57;64.03
18527;BME280;9393;42.158;24.748;2022-08-21T13:40:18;98746.41;;;28.54;64.87
18527;BME280;9393;42.158;24.748;2022-08-21T13:43:27;98742.47;;;27.52;68.52
18527;BME280;9393;42.158;24.748;2022-08-21T13:46:34;98745.53;;;28.04;65.91
18527;BME280;9393;42.158;24.748;2022-08-21T13:49:41;98732.75;;;28.50;64.87
18527;BME280;9393;42.158;24.748;2022-08-21T13:52:56;98736.31;;;28.36;64.65
18527;BME280;9393;42.158;24.748;2022-08-21T13:56:02;98740.56;;;28.42;64.37
18527;BME280;9393;42.158;24.748;2022-08-21T13:59:06;98742.06;;;28.68;63.89
18527;BME280;9393;42.158;24.748;2022-08-21T14:02:13;98736.47;;;28.98;62.08
18527;BME280;9393;42.158;24.748;2022-08-21T14:05:21;98734.44;;;28.36;61.76
18527;BME280;9393;42.158;24.748;2022-08-21T14:08:29;98734.22;;;29.10;59.63
18527;BME280;9393;42.158;24.748;2022-08-21T14:11:34;98728.66;;;28.14;62.82
18527;BME280;9393;42.158;24.748;2022-08-21T14:14:39;98731.06;;;29.03;60.88
18527;BME280;9393;42.158;24.748;2022-08-21T14:17:43;98729.50;;;29.60;57.65
18527;BME280;9393;42.158;24.748;2022-08-21T14:20:47;98724.28;;;29.69;57.05
18527;BME280;9393;42.158;24.748;2022-08-21T14:24:02;98711.47;;;29.61;58.05
18527;BME280;9393;42.158;24.748;2022-08-21T14:27:07;98706.22;;;29.50;58.88
18527;BME280;9393;42.158;24.748;2022-08-21T14:30:16;98707.03;;;29.51;58.93
18527;BME280;9393;42.158;24.748;2022-08-21T14:33:26;98696.81;;;29.48;58.69
18527;BME280;9393;42.158;24.748;2022-08-21T14:36:30;98696.94;;;29.38;58.27
18527;BME280;9393;42.158;24.748;2022-08-21T14:39:35;98697.97;;;29.42;59.48
18527;BME280;9393;42.158;24.748;2022-08-21T14:42:39;98697.00;;;29.85;58.37
18527;BME280;9393;42.158;24.748;2022-08-21T14:45:43;98692.56;;;29.94;57.43
18527;BME280;9393;42.158;24.748;2022-08-21T14:48:46;98690.72;;;29.66;58.33
18527;BME280;9393;42.158;24.748;2022-08-21T14:51:50;98680.50;;;29.68;58.86
18527;BME280;9393;42.158;24.748;2022-08-21T14:55:00;98692.78;;;29.50;59.46
18527;BME280;9393;42.158;24.748;2022-08-21T14:58:03;98686.19;;;29.38;58.07
18527;BME280;9393;42.158;24.748;2022-08-21T15:01:08;98692.78;;;29.22;58.27
18527;BME280;9393;42.158;24.748;2022-08-21T15:04:11;98687.63;;;28.96;59.06
18527;BME280;9393;42.158;24.748;2022-08-21T15:07:15;98686.91;;;28.86;60.23
18527;BME280;9393;42.158;24.748;2022-08-21T15:10:19;98683.25;;;28.28;60.68
18527;BME280;9393;42.158;24.748;2022-08-21T15:13:23;98692.13;;;28.72;60.18
18527;BME280;9393;42.158;24.748;2022-08-21T15:16:27;98693.28;;;28.56;60.68
18527;BME280;9393;42.158;24.748;2022-08-21T15:19:32;98681.25;;;28.48;60.99
18527;BME280;9393;42.158;24.748;2022-08-21T15:22:35;98683.69;;;27.91;62.93
18527;BME280;9393;42.158;24.748;2022-08-21T15:25:42;98674.66;;;28.31;61.96
18527;BME280;9393;42.158;24.748;2022-08-21T15:28:46;98677.50;;;28.49;61.29
18527;BME280;9393;42.158;24.748;2022-08-21T15:31:52;98680.34;;;28.24;61.60
18527;BME280;9393;42.158;24.748;2022-08-21T15:34:58;98671.03;;;28.12;61.67
18527;BME280;9393;42.158;24.748;2022-08-21T15:38:02;98672.72;;;28.41;60.12
18527;BME280;9393;42.158;24.748;2022-08-21T15:41:07;98662.84;;;28.37;60.26
18527;BME280;9393;42.158;24.748;2022-08-21T15:44:12;98655.56;;;28.42;60.19
18527;BME280;9393;42.158;24.748;2022-08-21T15:47:18;98646.72;;;28.42;60.22
18527;BME280;9393;42.158;24.748;2022-08-21T15:50:23;98646.66;;;28.03;62.03
18527;BME280;9393;42.158;24.748;2022-08-21T15:53:27;98650.84;;;27.65;61.76
18527;BME280;9393;42.158;24.748;2022-08-21T15:56:37;98641.09;;;27.89;61.13
18527;BME280;9393;42.158;24.748;2022-08-21T15:59:43;98639.91;;;28.16;59.97
18527;BME280;9393;42.158;24.748;2022-08-21T16:02:49;98643.84;;;28.33;59.80
18527;BME280;9393;42.158;24.748;2022-08-21T16:05:53;98638.97;;;28.35;59.67
18527;BME280;9393;42.158;24.748;2022-08-21T16:08:59;98633.25;;;28.08;59.15
18527;BME280;9393;42.158;24.748;2022-08-21T16:12:05;98634.25;;;28.22;58.74
18527;BME280;9393;42.158;24.748;2022-08-21T16:15:10;98625.47;;;28.12;59.61
18527;BME280;9393;42.158;24.748;2022-08-21T16:18:22;98626.53;;;28.10;60.15
18527;BME280;9393;42.158;24.748;2022-08-21T16:21:27;98621.50;;;27.99;61.50
18527;BME280;9393;42.158;24.748;2022-08-21T16:24:30;98615.81;;;28.05;61.61
18527;BME280;9393;42.158;24.748;2022-08-21T16:27:36;98622.81;;;27.96;60.83
18527;BME280;9393;42.158;24.748;2022-08-21T16:30:42;98622.94;;;27.81;61.96